sensor_id;sensor_type;location;lat;lon;timestamp;P1;durP1;ratioP1;P2;durP2;ratioP2
48042;SDS011;33988;47.992;8.820;2022-12-18T00:01:25;26.40;;;11.35;;
48042;SDS011;33988;47.992;8.820;2022-12-18T00:03:55;26.83;;;11.43;;
48042;SDS011;33988;47.992;8.820;2022-12-18T00:06:24;26.17;;;11.13;;
48042;SDS011;33988;47.992;8.820;2022-12-18T00:08:54;27.83;;;12.27;;
48042;SDS011;33988;47.992;8.820;2022-12-18T00:11:23;30.45;;;12.18;;
48042;SDS011;33988;47.992;8.820;2022-12-18T00:13:54;26.65;;;11.80;;
48042;SDS011;33988;47.992;8.820;2022-12-18T00:16:24;24.30;;;10.77;;
48042;SDS011;33988;47.992;8.820;2022-12-18T00:18:59;24.88;;;11.13;;
48042;SDS011;33988;47.992;8.820;2022-12-18T00:21:29;23.92;;;11.13;;
48042;SDS011;33988;47.992;8.820;2022-12-18T00:23:59;28.27;;;11.57;;
48042;SDS011;33988;47.992;8.820;2022-12-18T00:26:30;23.67;;;10.50;;
48042;SDS011;33988;47.992;8.820;2022-12-18T00:29:00;23.52;;;10.45;;
48042;SDS011;33988;47.992;8.820;2022-12-18T00:31:33;30.88;;;11.20;;
48042;SDS011;33988;47.992;8.820;2022-12-18T00:34:03;26.67;;;11.75;;
48042;SDS011;33988;47.992;8.820;2022-12-18T00:36:34;25.85;;;10.38;;
48042;SDS011;33988;47.992;8.820;2022-12-18T00:39:04;30.35;;;11.18;;
48042;SDS011;33988;47.992;8.820;2022-12-18T00:41:36;29.40;;;12.07;;
48042;SDS011;33988;47.992;8.820;2022-12-18T00:44:22;21.90;;;10.32;;
48042;SDS011;33988;47.992;8.820;2022-12-18T00:46:49;26.13;;;11.07;;
48042;SDS011;33988;47.992;8.820;2022-12-18T00:49:19;24.77;;;11.00;;
48042;SDS011;33988;47.992;8.820;2022-12-18T00:51:47;29.48;;;12.57;;
48042;SDS011;33988;47.992;8.820;2022-12-18T00:54:14;26.23;;;10.88;;
48042;SDS011;33988;47.992;8.820;2022-12-18T00:56:42;24.40;;;11.25;;
48042;SDS011;33988;47.992;8.820;2022-12-18T00:59:16;29.17;;;12.48;;
48042;SDS011;33988;47.992;8.820;2022-12-18T01:01:46;26.35;;;11.70;;
48042;SDS011;33988;47.992;8.820;2022-12-18T01:04:18;26.08;;;11.65;;
48042;SDS011;33988;47.992;8.820;2022-12-18T01:06:47;29.15;;;11.95;;
48042;SDS011;33988;47.992;8.820;2022-12-18T01:09:19;26.45;;;11.40;;
48042;SDS011;33988;47.992;8.820;2022-12-18T01:11:48;29.38;;;11.63;;
48042;SDS011;33988;47.992;8.820;2022-12-18T01:14:15;24.45;;;10.43;;
48042;SDS011;33988;47.992;8.820;2022-12-18T01:16:42;22.88;;;10.32;;
48042;SDS011;33988;47.992;8.820;2022-12-18T01:19:14;25.35;;;10.20;;
48042;SDS011;33988;47.992;8.820;2022-12-18T01:21:43;23.92;;;10.68;;
48042;SDS011;33988;47.992;8.820;2022-12-18T01:24:10;23.85;;;10.52;;
48042;SDS011;33988;47.992;8.820;2022-12-18T01:26:40;27.65;;;11.35;;
48042;SDS011;33988;47.992;8.820;2022-12-18T01:29:07;30.08;;;11.55;;
48042;SDS011;33988;47.992;8.820;2022-12-18T01:31:36;25.40;;;10.38;;
48042;SDS011;33988;47.992;8.820;2022-12-18T01:34:04;22.15;;;10.00;;
48042;SDS011;33988;47.992;8.820;2022-12-18T01:36:32;20.42;;;8.95;;
48042;SDS011;33988;47.992;8.820;2022-12-18T01:39:03;25.67;;;10.18;;
48042;SDS011;33988;47.992;8.820;2022-12-18T01:41:33;22.65;;;9.63;;
48042;SDS011;33988;47.992;8.820;2022-12-18T01:47:32;22.85;;;8.85;;
48042;SDS011;33988;47.992;8.820;2022-12-18T01:50:16;20.30;;;9.20;;
48042;SDS011;33988;47.992;8.820;2022-12-18T01:52:53;22.13;;;8.73;;
48042;SDS011;33988;47.992;8.820;2022-12-18T01:55:26;19.38;;;9.05;;
48042;SDS011;33988;47.992;8.820;2022-12-18T01:57:58;18.35;;;8.75;;
48042;SDS011;33988;47.992;8.820;2022-12-18T02:00:27;21.83;;;8.93;;
48042;SDS011;33988;47.992;8.820;2022-12-18T02:02:55;23.00;;;9.73;;
48042;SDS011;33988;47.992;8.820;2022-12-18T02:05:57;17.95;;;8.82;;
48042;SDS011;33988;47.992;8.820;2022-12-18T02:08:42;25.88;;;11.05;;
48042;SDS011;33988;47.992;8.820;2022-12-18T02:12:04;25.60;;;10.88;;
48042;SDS011;33988;47.992;8.820;2022-12-18T02:14:33;25.92;;;9.73;;
48042;SDS011;33988;47.992;8.820;2022-12-18T02:22:41;27.33;;;10.63;;
48042;SDS011;33988;47.992;8.820;2022-12-18T02:28:27;28.25;;;10.98;;
48042;SDS011;33988;47.992;8.820;2022-12-18T02:30:59;29.83;;;11.27;;
48042;SDS011;33988;47.992;8.820;2022-12-18T02:33:29;27.75;;;10.45;;
48042;SDS011;33988;47.992;8.820;2022-12-18T02:35:58;29.35;;;11.77;;
48042;SDS011;33988;47.992;8.820;2022-12-18T02:38:26;26.60;;;11.07;;
48042;SDS011;33988;47.992;8.820;2022-12-18T02:40:59;24.50;;;10.32;;
48042;SDS011;33988;47.992;8.820;2022-12-18T02:43:29;25.77;;;10.48;;
48042;SDS011;33988;47.992;8.820;2022-12-18T02:45:57;27.00;;;10.35;;
48042;SDS011;33988;47.992;8.820;2022-12-18T02:48:31;25.73;;;10.13;;
48042;SDS011;33988;47.992;8.820;2022-12-18T02:51:03;25.40;;;10.13;;
48042;SDS011;33988;47.992;8.820;2022-12-18T02:54:04;28.23;;;9.95;;
48042;SDS011;33988;47.992;8.820;2022-12-18T02:57:04;23.73;;;9.98;;
48042;SDS011;33988;47.992;8.820;2022-12-18T02:59:47;26.15;;;9.98;;
48042;SDS011;33988;47.992;8.820;2022-12-18T03:07:47;27.13;;;11.02;;
48042;SDS011;33988;47.992;8.820;2022-12-18T03:10:21;23.52;;;9.85;;
48042;SDS011;33988;47.992;8.820;2022-12-18T03:13:00;26.48;;;11.13;;
48042;SDS011;33988;47.992;8.820;2022-12-18T03:15:35;22.38;;;9.00;;
48042;SDS011;33988;47.992;8.820;2022-12-18T03:18:23;23.83;;;9.55;;
48042;SDS011;33988;47.992;8.820;2022-12-18T03:21:21;25.25;;;9.15;;
48042;SDS011;33988;47.992;8.820;2022-12-18T03:24:11;27.33;;;9.60;;
48042;SDS011;33988;47.992;8.820;2022-12-18T03:26:40;21.05;;;7.93;;
48042;SDS011;33988;47.992;8.820;2022-12-18T03:29:16;24.52;;;9.48;;
48042;SDS011;33988;47.992;8.820;2022-12-18T03:31:54;24.00;;;9.20;;
48042;SDS011;33988;47.992;8.820;2022-12-18T03:34:46;23.90;;;8.75;;
48042;SDS011;33988;47.992;8.820;2022-12-18T03:37:16;26.88;;;9.48;;
48042;SDS011;33988;47.992;8.820;2022-12-18T03:39:43;26.42;;;9.93;;
48042;SDS011;33988;47.992;8.820;2022-12-18T03:42:15;27.15;;;9.25;;
48042;SDS011;33988;47.992;8.820;2022-12-18T03:50:36;23.25;;;9.13;;
48042;SDS011;33988;47.992;8.820;2022-12-18T03:55:59;20.92;;;8.90;;
48042;SDS011;33988;47.992;8.820;2022-12-18T03:58:28;25.83;;;9.82;;
48042;SDS011;33988;47.992;8.820;2022-12-18T04:00:59;23.08;;;9.30;;
48042;SDS011;33988;47.992;8.820;2022-12-18T04:03:32;19.25;;;8.68;;
48042;SDS011;33988;47.992;8.820;2022-12-18T04:06:02;22.33;;;8.45;;
48042;SDS011;33988;47.992;8.820;2022-12-18T04:08:31;24.08;;;9.18;;
48042;SDS011;33988;47.992;8.820;2022-12-18T04:11:02;22.00;;;8.57;;
48042;SDS011;33988;47.992;8.820;2022-12-18T04:13:36;20.90;;;8.65;;
48042;SDS011;33988;47.992;8.820;2022-12-18T04:16:05;21.27;;;9.00;;
48042;SDS011;33988;47.992;8.820;2022-12-18T04:18:33;23.63;;;9.82;;
48042;SDS011;33988;47.992;8.820;2022-12-18T04:21:03;19.92;;;9.73;;
48042;SDS011;33988;47.992;8.820;2022-12-18T04:23:30;20.15;;;8.75;;
48042;SDS011;33988;47.992;8.820;2022-12-18T04:25:57;25.25;;;9.55;;
48042;SDS011;33988;47.992;8.820;2022-12-18T04:28:27;21.83;;;8.57;;
48042;SDS011;33988;47.992;8.820;2022-12-18T04:30:56;22.67;;;7.82;;
48042;SDS011;33988;47.992;8.820;2022-12-18T04:33:23;21.48;;;9.23;;
48042;SDS011;33988;47.992;8.820;2022-12-18T04:35:50;17.38;;;7.47;;
48042;SDS011;33988;47.992;8.820;2022-12-18T04:38:17;20.20;;;7.90;;
48042;SDS011;33988;47.992;8.820;2022-12-18T04:40:44;16.58;;;7.13;;
48042;SDS011;33988;47.992;8.820;2022-12-18T04:43:13;16.20;;;6.50;;
48042;SDS011;33988;47.992;8.820;2022-12-18T04:45:40;16.42;;;6.90;;
48042;SDS011;33988;47.992;8.820;2022-12-18T04:48:10;18.58;;;7.57;;
48042;SDS011;33988;47.992;8.820;2022-12-18T04:50:37;17.27;;;7.07;;
48042;SDS011;33988;47.992;8.820;2022-12-18T04:53:06;18.58;;;7.53;;
48042;SDS011;33988;47.992;8.820;2022-12-18T04:55:35;17.58;;;7.63;;
48042;SDS011;33988;47.992;8.820;2022-12-18T04:58:02;24.85;;;9.20;;
48042;SDS011;33988;47.992;8.820;2022-12-18T05:00:29;20.98;;;8.07;;
48042;SDS011;33988;47.992;8.820;2022-12-18T05:02:56;20.35;;;8.88;;
48042;SDS011;33988;47.992;8.820;2022-12-18T05:05:23;19.48;;;7.85;;
48042;SDS011;33988;47.992;8.820;2022-12-18T05:07:53;19.17;;;7.43;;
48042;SDS011;33988;47.992;8.820;2022-12-18T05:10:20;19.95;;;7.32;;
48042;SDS011;33988;47.992;8.820;2022-12-18T05:12:47;18.17;;;7.40;;
48042;SDS011;33988;47.992;8.820;2022-12-18T05:15:29;20.10;;;7.95;;
48042;SDS011;33988;47.992;8.820;2022-12-18T05:17:58;18.80;;;7.82;;
48042;SDS011;33988;47.992;8.820;2022-12-18T05:20:28;20.90;;;8.57;;
48042;SDS011;33988;47.992;8.820;2022-12-18T05:22:58;21.88;;;8.80;;
48042;SDS011;33988;47.992;8.820;2022-12-18T05:25:27;16.50;;;6.82;;
48042;SDS011;33988;47.992;8.820;2022-12-18T05:27:54;20.42;;;8.85;;
48042;SDS011;33988;47.992;8.820;2022-12-18T05:30:24;18.02;;;7.40;;
48042;SDS011;33988;47.992;8.820;2022-12-18T05:32:53;17.80;;;7.43;;
48042;SDS011;33988;47.992;8.820;2022-12-18T05:35:20;20.30;;;8.07;;
48042;SDS011;33988;47.992;8.820;2022-12-18T05:37:47;18.83;;;7.72;;
48042;SDS011;33988;47.992;8.820;2022-12-18T05:40:14;20.67;;;8.50;;
48042;SDS011;33988;47.992;8.820;2022-12-18T05:42:41;22.90;;;8.50;;
48042;SDS011;33988;47.992;8.820;2022-12-18T05:45:08;17.20;;;8.07;;
48042;SDS011;33988;47.992;8.820;2022-12-18T05:47:35;21.02;;;7.97;;
48042;SDS011;33988;47.992;8.820;2022-12-18T05:50:02;22.95;;;8.40;;
48042;SDS011;33988;47.992;8.820;2022-12-18T05:52:32;21.15;;;8.38;;
48042;SDS011;33988;47.992;8.820;2022-12-18T05:55:02;23.50;;;8.45;;
48042;SDS011;33988;47.992;8.820;2022-12-18T05:57:35;21.77;;;8.18;;
48042;SDS011;33988;47.992;8.820;2022-12-18T06:00:04;19.67;;;7.78;;
48042;SDS011;33988;47.992;8.820;2022-12-18T06:02:34;19.23;;;8.15;;
48042;SDS011;33988;47.992;8.820;2022-12-18T06:05:04;22.73;;;9.35;;
48042;SDS011;33988;47.992;8.820;2022-12-18T06:07:32;20.23;;;8.02;;
48042;SDS011;33988;47.992;8.820;2022-12-18T06:10:01;18.77;;;8.10;;
48042;SDS011;33988;47.992;8.820;2022-12-18T06:12:31;22.00;;;8.43;;
48042;SDS011;33988;47.992;8.820;2022-12-18T06:15:00;19.98;;;8.27;;
48042;SDS011;33988;47.992;8.820;2022-12-18T06:17:28;19.17;;;7.57;;
48042;SDS011;33988;47.992;8.820;2022-12-18T06:19:56;22.10;;;8.05;;
48042;SDS011;33988;47.992;8.820;2022-12-18T06:22:23;28.83;;;9.30;;
48042;SDS011;33988;47.992;8.820;2022-12-18T06:24:50;23.23;;;8.88;;
48042;SDS011;33988;47.992;8.820;2022-12-18T06:27:19;22.77;;;8.82;;
48042;SDS011;33988;47.992;8.820;2022-12-18T06:29:49;25.88;;;9.50;;
48042;SDS011;33988;47.992;8.820;2022-12-18T06:32:15;24.95;;;8.82;;
48042;SDS011;33988;47.992;8.820;2022-12-18T06:34:42;24.75;;;8.90;;
48042;SDS011;33988;47.992;8.820;2022-12-18T06:37:12;22.13;;;9.30;;
48042;SDS011;33988;47.992;8.820;2022-12-18T06:39:39;22.40;;;8.93;;
48042;SDS011;33988;47.992;8.820;2022-12-18T06:42:06;25.20;;;9.43;;
48042;SDS011;33988;47.992;8.820;2022-12-18T06:44:32;25.52;;;9.88;;
48042;SDS011;33988;47.992;8.820;2022-12-18T06:46:59;26.67;;;10.55;;
48042;SDS011;33988;47.992;8.820;2022-12-18T06:49:26;28.27;;;10.88;;
48042;SDS011;33988;47.992;8.820;2022-12-18T06:51:56;21.05;;;8.90;;
48042;SDS011;33988;47.992;8.820;2022-12-18T06:54:22;19.20;;;8.70;;
48042;SDS011;33988;47.992;8.820;2022-12-18T06:56:52;24.35;;;9.10;;
48042;SDS011;33988;47.992;8.820;2022-12-18T06:59:22;28.52;;;9.25;;
48042;SDS011;33988;47.992;8.820;2022-12-18T07:01:49;29.30;;;10.55;;
48042;SDS011;33988;47.992;8.820;2022-12-18T07:04:16;21.98;;;9.05;;
48042;SDS011;33988;47.992;8.820;2022-12-18T07:06:46;20.33;;;9.23;;
48042;SDS011;33988;47.992;8.820;2022-12-18T07:09:12;28.35;;;10.10;;
48042;SDS011;33988;47.992;8.820;2022-12-18T07:11:44;25.23;;;10.32;;
48042;SDS011;33988;47.992;8.820;2022-12-18T07:14:11;25.75;;;9.10;;
48042;SDS011;33988;47.992;8.820;2022-12-18T07:16:38;29.38;;;10.32;;
48042;SDS011;33988;47.992;8.820;2022-12-18T07:19:07;25.02;;;8.98;;
48042;SDS011;33988;47.992;8.820;2022-12-18T07:21:34;26.42;;;9.43;;
48042;SDS011;33988;47.992;8.820;2022-12-18T07:24:03;24.65;;;8.80;;
48042;SDS011;33988;47.992;8.820;2022-12-18T07:26:35;28.63;;;10.80;;
48042;SDS011;33988;47.992;8.820;2022-12-18T07:29:02;29.40;;;11.75;;
48042;SDS011;33988;47.992;8.820;2022-12-18T07:31:29;33.75;;;11.68;;
48042;SDS011;33988;47.992;8.820;2022-12-18T07:33:56;30.23;;;10.98;;
48042;SDS011;33988;47.992;8.820;2022-12-18T07:36:23;32.30;;;10.38;;
48042;SDS011;33988;47.992;8.820;2022-12-18T07:38:50;30.23;;;10.88;;
48042;SDS011;33988;47.992;8.820;2022-12-18T07:41:19;24.90;;;9.55;;
48042;SDS011;33988;47.992;8.820;2022-12-18T07:43:46;27.75;;;10.18;;
48042;SDS011;33988;47.992;8.820;2022-12-18T07:46:14;25.42;;;9.10;;
48042;SDS011;33988;47.992;8.820;2022-12-18T07:48:45;28.73;;;10.45;;
48042;SDS011;33988;47.992;8.820;2022-12-18T07:51:15;24.90;;;9.35;;
48042;SDS011;33988;47.992;8.820;2022-12-18T07:53:43;24.70;;;9.65;;
48042;SDS011;33988;47.992;8.820;2022-12-18T07:56:11;26.00;;;9.73;;
48042;SDS011;33988;47.992;8.820;2022-12-18T07:58:53;27.38;;;10.25;;
48042;SDS011;33988;47.992;8.820;2022-12-18T08:01:23;28.35;;;10.90;;
48042;SDS011;33988;47.992;8.820;2022-12-18T08:03:50;33.55;;;12.75;;
48042;SDS011;33988;47.992;8.820;2022-12-18T08:06:19;32.95;;;11.15;;
48042;SDS011;33988;47.992;8.820;2022-12-18T08:08:53;28.88;;;9.88;;
48042;SDS011;33988;47.992;8.820;2022-12-18T08:11:24;25.17;;;9.82;;
48042;SDS011;33988;47.992;8.820;2022-12-18T08:13:53;29.15;;;10.65;;
48042;SDS011;33988;47.992;8.820;2022-12-18T08:16:21;40.90;;;13.50;;
48042;SDS011;33988;47.992;8.820;2022-12-18T08:18:48;31.95;;;11.13;;
48042;SDS011;33988;47.992;8.820;2022-12-18T08:21:19;29.77;;;11.88;;
48042;SDS011;33988;47.992;8.820;2022-12-18T08:23:53;31.15;;;10.20;;
48042;SDS011;33988;47.992;8.820;2022-12-18T08:26:22;28.65;;;10.80;;
48042;SDS011;33988;47.992;8.820;2022-12-18T08:28:53;27.10;;;9.80;;
48042;SDS011;33988;47.992;8.820;2022-12-18T08:31:22;30.00;;;10.82;;
48042;SDS011;33988;47.992;8.820;2022-12-18T08:33:51;31.65;;;11.80;;
48042;SDS011;33988;47.992;8.820;2022-12-18T08:36:20;29.42;;;10.98;;
48042;SDS011;33988;47.992;8.820;2022-12-18T08:38:48;36.08;;;12.10;;
48042;SDS011;33988;47.992;8.820;2022-12-18T08:41:15;31.95;;;12.38;;
48042;SDS011;33988;47.992;8.820;2022-12-18T08:43:48;23.30;;;10.27;;
48042;SDS011;33988;47.992;8.820;2022-12-18T08:46:39;26.77;;;10.98;;
48042;SDS011;33988;47.992;8.820;2022-12-18T08:49:10;30.25;;;10.63;;
48042;SDS011;33988;47.992;8.820;2022-12-18T08:51:38;32.92;;;12.30;;
48042;SDS011;33988;47.992;8.820;2022-12-18T08:54:09;30.50;;;11.65;;
48042;SDS011;33988;47.992;8.820;2022-12-18T08:59:06;30.95;;;11.20;;
48042;SDS011;33988;47.992;8.820;2022-12-18T09:01:42;31.83;;;11.77;;
48042;SDS011;33988;47.992;8.820;2022-12-18T09:04:09;34.28;;;11.75;;
48042;SDS011;33988;47.992;8.820;2022-12-18T09:06:39;29.35;;;11.70;;
48042;SDS011;33988;47.992;8.820;2022-12-18T09:09:08;28.20;;;11.75;;
48042;SDS011;33988;47.992;8.820;2022-12-18T09:11:39;30.48;;;11.63;;
48042;SDS011;33988;47.992;8.820;2022-12-18T09:14:06;35.75;;;13.88;;
48042;SDS011;33988;47.992;8.820;2022-12-18T09:16:38;38.35;;;13.60;;
48042;SDS011;33988;47.992;8.820;2022-12-18T09:19:05;29.30;;;11.48;;
48042;SDS011;33988;47.992;8.820;2022-12-18T09:21:37;31.63;;;13.00;;
48042;SDS011;33988;47.992;8.820;2022-12-18T09:24:13;34.80;;;13.25;;
48042;SDS011;33988;47.992;8.820;2022-12-18T09:26:41;33.10;;;12.30;;
48042;SDS011;33988;47.992;8.820;2022-12-18T09:29:12;27.88;;;11.10;;
48042;SDS011;33988;47.992;8.820;2022-12-18T09:31:44;29.95;;;11.63;;
48042;SDS011;33988;47.992;8.820;2022-12-18T09:34:11;27.15;;;10.65;;
48042;SDS011;33988;47.992;8.820;2022-12-18T09:36:38;30.58;;;10.88;;
48042;SDS011;33988;47.992;8.820;2022-12-18T09:39:05;34.10;;;12.25;;
48042;SDS011;33988;47.992;8.820;2022-12-18T09:41:53;29.75;;;11.90;;
48042;SDS011;33988;47.992;8.820;2022-12-18T09:47:30;31.08;;;11.00;;
48042;SDS011;33988;47.992;8.820;2022-12-18T09:50:12;31.05;;;11.55;;
48042;SDS011;33988;47.992;8.820;2022-12-18T09:53:22;27.67;;;10.45;;
48042;SDS011;33988;47.992;8.820;2022-12-18T09:55:53;27.70;;;10.88;;
48042;SDS011;33988;47.992;8.820;2022-12-18T09:58:30;32.45;;;12.27;;
48042;SDS011;33988;47.992;8.820;2022-12-18T10:01:22;33.60;;;12.57;;
48042;SDS011;33988;47.992;8.820;2022-12-18T10:03:50;30.60;;;12.38;;
48042;SDS011;33988;47.992;8.820;2022-12-18T10:06:26;35.92;;;13.50;;
48042;SDS011;33988;47.992;8.820;2022-12-18T10:14:57;34.03;;;12.75;;
48042;SDS011;33988;47.992;8.820;2022-12-18T10:20:54;35.20;;;12.82;;
48042;SDS011;33988;47.992;8.820;2022-12-18T10:26:20;33.53;;;13.13;;
48042;SDS011;33988;47.992;8.820;2022-12-18T10:28:48;36.35;;;13.57;;
48042;SDS011;33988;47.992;8.820;2022-12-18T10:31:16;33.85;;;14.23;;
48042;SDS011;33988;47.992;8.820;2022-12-18T10:33:50;32.33;;;13.23;;
48042;SDS011;33988;47.992;8.820;2022-12-18T10:36:22;33.67;;;13.18;;
48042;SDS011;33988;47.992;8.820;2022-12-18T10:38:53;31.98;;;12.73;;
48042;SDS011;33988;47.992;8.820;2022-12-18T10:43:51;30.70;;;12.00;;
48042;SDS011;33988;47.992;8.820;2022-12-18T10:47:04;26.83;;;10.80;;
48042;SDS011;33988;47.992;8.820;2022-12-18T10:49:38;32.10;;;13.43;;
48042;SDS011;33988;47.992;8.820;2022-12-18T10:54:58;35.63;;;13.38;;
48042;SDS011;33988;47.992;8.820;2022-12-18T10:57:33;27.80;;;12.50;;
48042;SDS011;33988;47.992;8.820;2022-12-18T11:02:56;35.88;;;13.50;;
48042;SDS011;33988;47.992;8.820;2022-12-18T11:07:58;29.65;;;11.93;;
48042;SDS011;33988;47.992;8.820;2022-12-18T11:10:36;34.20;;;13.90;;
48042;SDS011;33988;47.992;8.820;2022-12-18T11:13:14;38.22;;;13.43;;
48042;SDS011;33988;47.992;8.820;2022-12-18T11:15:47;32.40;;;13.43;;
48042;SDS011;33988;47.992;8.820;2022-12-18T11:18:19;36.38;;;14.40;;
48042;SDS011;33988;47.992;8.820;2022-12-18T11:21:06;40.45;;;15.13;;
48042;SDS011;33988;47.992;8.820;2022-12-18T11:23:36;33.50;;;13.02;;
48042;SDS011;33988;47.992;8.820;2022-12-18T11:26:18;27.55;;;11.55;;
48042;SDS011;33988;47.992;8.820;2022-12-18T11:28:49;33.08;;;12.00;;
48042;SDS011;33988;47.992;8.820;2022-12-18T11:31:34;28.58;;;12.10;;
48042;SDS011;33988;47.992;8.820;2022-12-18T11:36:48;28.45;;;10.82;;
48042;SDS011;33988;47.992;8.820;2022-12-18T11:39:37;30.92;;;11.40;;
48042;SDS011;33988;47.992;8.820;2022-12-18T11:42:14;32.72;;;12.63;;
48042;SDS011;33988;47.992;8.820;2022-12-18T11:44:50;32.65;;;12.65;;
48042;SDS011;33988;47.992;8.820;2022-12-18T11:47:26;32.40;;;11.65;;
48042;SDS011;33988;47.992;8.820;2022-12-18T11:50:15;34.72;;;13.57;;
48042;SDS011;33988;47.992;8.820;2022-12-18T11:52:57;34.53;;;13.13;;
48042;SDS011;33988;47.992;8.820;2022-12-18T12:04:41;33.88;;;13.43;;
48042;SDS011;33988;47.992;8.820;2022-12-18T12:07:56;33.37;;;11.43;;
48042;SDS011;33988;47.992;8.820;2022-12-18T12:16:57;28.70;;;11.65;;
48042;SDS011;33988;47.992;8.820;2022-12-18T12:26:12;24.77;;;10.52;;
48042;SDS011;33988;47.992;8.820;2022-12-18T12:32:17;33.45;;;12.85;;
48042;SDS011;33988;47.992;8.820;2022-12-18T12:40:42;36.50;;;13.88;;
48042;SDS011;33988;47.992;8.820;2022-12-18T12:43:41;35.22;;;14.57;;
48042;SDS011;33988;47.992;8.820;2022-12-18T12:46:17;34.10;;;13.40;;
48042;SDS011;33988;47.992;8.820;2022-12-18T12:53:57;35.67;;;15.55;;
48042;SDS011;33988;47.992;8.820;2022-12-18T12:56:36;36.05;;;14.18;;
48042;SDS011;33988;47.992;8.820;2022-12-18T13:05:39;24.75;;;11.88;;
48042;SDS011;33988;47.992;8.820;2022-12-18T13:10:53;36.70;;;15.52;;
48042;SDS011;33988;47.992;8.820;2022-12-18T13:13:53;32.58;;;13.93;;
48042;SDS011;33988;47.992;8.820;2022-12-18T13:16:23;30.92;;;12.40;;
48042;SDS011;33988;47.992;8.820;2022-12-18T13:18:57;30.50;;;12.53;;
48042;SDS011;33988;47.992;8.820;2022-12-18T13:21:33;35.85;;;15.50;;
48042;SDS011;33988;47.992;8.820;2022-12-18T13:24:23;35.92;;;14.48;;
48042;SDS011;33988;47.992;8.820;2022-12-18T13:26:55;34.75;;;15.07;;
48042;SDS011;33988;47.992;8.820;2022-12-18T13:32:19;32.40;;;13.77;;
48042;SDS011;33988;47.992;8.820;2022-12-18T13:38:32;33.83;;;12.73;;
48042;SDS011;33988;47.992;8.820;2022-12-18T13:41:22;28.77;;;11.90;;
48042;SDS011;33988;47.992;8.820;2022-12-18T13:43:55;33.38;;;14.20;;
48042;SDS011;33988;47.992;8.820;2022-12-18T13:46:44;33.60;;;15.00;;
48042;SDS011;33988;47.992;8.820;2022-12-18T13:51:44;34.22;;;14.00;;
48042;SDS011;33988;47.992;8.820;2022-12-18T13:57:03;32.22;;;12.23;;
48042;SDS011;33988;47.992;8.820;2022-12-18T13:59:33;28.98;;;12.20;;
48042;SDS011;33988;47.992;8.820;2022-12-18T14:02:15;33.05;;;13.35;;
48042;SDS011;33988;47.992;8.820;2022-12-18T14:04:47;34.55;;;14.02;;
48042;SDS011;33988;47.992;8.820;2022-12-18T14:07:19;31.95;;;12.07;;
48042;SDS011;33988;47.992;8.820;2022-12-18T14:10:03;30.40;;;12.27;;
48042;SDS011;33988;47.992;8.820;2022-12-18T14:12:57;28.52;;;12.02;;
48042;SDS011;33988;47.992;8.820;2022-12-18T14:15:33;29.02;;;11.73;;
48042;SDS011;33988;47.992;8.820;2022-12-18T14:18:19;27.83;;;11.05;;
48042;SDS011;33988;47.992;8.820;2022-12-18T14:20:59;30.52;;;12.05;;
48042;SDS011;33988;47.992;8.820;2022-12-18T14:26:28;31.58;;;12.57;;
48042;SDS011;33988;47.992;8.820;2022-12-18T14:28:58;32.97;;;12.85;;
48042;SDS011;33988;47.992;8.820;2022-12-18T14:32:03;27.90;;;11.90;;
48042;SDS011;33988;47.992;8.820;2022-12-18T14:34:50;30.52;;;12.93;;
48042;SDS011;33988;47.992;8.820;2022-12-18T14:37:23;33.20;;;12.82;;
48042;SDS011;33988;47.992;8.820;2022-12-18T14:40:01;27.88;;;11.48;;
48042;SDS011;33988;47.992;8.820;2022-12-18T14:42:39;28.05;;;11.77;;
48042;SDS011;33988;47.992;8.820;2022-12-18T14:53:48;37.65;;;14.77;;
48042;SDS011;33988;47.992;8.820;2022-12-18T14:56:26;30.30;;;12.82;;
48042;SDS011;33988;47.992;8.820;2022-12-18T14:59:02;29.67;;;12.55;;
48042;SDS011;33988;47.992;8.820;2022-12-18T15:04:05;35.95;;;14.55;;
48042;SDS011;33988;47.992;8.820;2022-12-18T15:07:05;29.45;;;11.98;;
48042;SDS011;33988;47.992;8.820;2022-12-18T15:09:34;30.02;;;13.02;;
48042;SDS011;33988;47.992;8.820;2022-12-18T15:12:01;27.48;;;11.93;;
48042;SDS011;33988;47.992;8.820;2022-12-18T15:14:39;36.28;;;14.90;;
48042;SDS011;33988;47.992;8.820;2022-12-18T15:17:15;29.20;;;12.50;;
48042;SDS011;33988;47.992;8.820;2022-12-18T15:19:52;34.08;;;15.02;;
48042;SDS011;33988;47.992;8.820;2022-12-18T15:22:27;35.00;;;12.85;;
48042;SDS011;33988;47.992;8.820;2022-12-18T15:25:01;33.80;;;13.27;;
48042;SDS011;33988;47.992;8.820;2022-12-18T15:28:00;32.92;;;13.18;;
48042;SDS011;33988;47.992;8.820;2022-12-18T15:30:29;31.48;;;13.75;;
48042;SDS011;33988;47.992;8.820;2022-12-18T15:33:22;29.27;;;11.68;;
48042;SDS011;33988;47.992;8.820;2022-12-18T15:36:00;32.83;;;12.98;;
48042;SDS011;33988;47.992;8.820;2022-12-18T15:38:30;34.88;;;14.65;;
48042;SDS011;33988;47.992;8.820;2022-12-18T15:40:58;37.80;;;13.88;;
48042;SDS011;33988;47.992;8.820;2022-12-18T15:43:26;37.53;;;15.18;;
48042;SDS011;33988;47.992;8.820;2022-12-18T15:46:03;36.05;;;14.70;;
48042;SDS011;33988;47.992;8.820;2022-12-18T15:48:41;35.63;;;15.32;;
48042;SDS011;33988;47.992;8.820;2022-12-18T15:51:28;34.67;;;14.07;;
48042;SDS011;33988;47.992;8.820;2022-12-18T15:53:59;29.50;;;12.40;;
48042;SDS011;33988;47.992;8.820;2022-12-18T15:56:30;28.92;;;11.80;;
48042;SDS011;33988;47.992;8.820;2022-12-18T15:59:19;35.65;;;13.98;;
48042;SDS011;33988;47.992;8.820;2022-12-18T16:01:48;31.42;;;12.60;;
48042;SDS011;33988;47.992;8.820;2022-12-18T16:04:22;30.50;;;12.15;;
48042;SDS011;33988;47.992;8.820;2022-12-18T16:06:50;48.22;;;16.52;;
48042;SDS011;33988;47.992;8.820;2022-12-18T16:09:37;37.15;;;14.07;;
48042;SDS011;33988;47.992;8.820;2022-12-18T16:12:14;36.30;;;14.60;;
48042;SDS011;33988;47.992;8.820;2022-12-18T16:14:44;32.20;;;14.40;;
48042;SDS011;33988;47.992;8.820;2022-12-18T16:17:14;32.03;;;12.88;;
48042;SDS011;33988;47.992;8.820;2022-12-18T16:19:41;36.85;;;14.98;;
48042;SDS011;33988;47.992;8.820;2022-12-18T16:22:22;33.30;;;13.45;;
48042;SDS011;33988;47.992;8.820;2022-12-18T16:24:54;33.72;;;13.07;;
48042;SDS011;33988;47.992;8.820;2022-12-18T16:27:23;29.88;;;12.65;;
48042;SDS011;33988;47.992;8.820;2022-12-18T16:29:53;34.50;;;12.75;;
48042;SDS011;33988;47.992;8.820;2022-12-18T16:32:20;32.17;;;13.95;;
48042;SDS011;33988;47.992;8.820;2022-12-18T16:34:49;35.25;;;14.18;;
48042;SDS011;33988;47.992;8.820;2022-12-18T16:37:16;38.20;;;15.25;;
48042;SDS011;33988;47.992;8.820;2022-12-18T16:39:43;36.83;;;15.50;;
48042;SDS011;33988;47.992;8.820;2022-12-18T16:42:15;36.65;;;14.38;;
48042;SDS011;33988;47.992;8.820;2022-12-18T16:44:46;38.83;;;14.13;;
48042;SDS011;33988;47.992;8.820;2022-12-18T16:47:15;33.55;;;13.07;;
48042;SDS011;33988;47.992;8.820;2022-12-18T16:49:43;37.92;;;14.55;;
48042;SDS011;33988;47.992;8.820;2022-12-18T16:52:11;40.67;;;15.18;;
48042;SDS011;33988;47.992;8.820;2022-12-18T16:54:39;34.30;;;13.05;;
48042;SDS011;33988;47.992;8.820;2022-12-18T16:57:07;35.45;;;13.60;;
48042;SDS011;33988;47.992;8.820;2022-12-18T16:59:38;37.78;;;13.80;;
48042;SDS011;33988;47.992;8.820;2022-12-18T17:02:12;34.58;;;13.57;;
48042;SDS011;33988;47.992;8.820;2022-12-18T17:04:49;38.63;;;13.15;;
48042;SDS011;33988;47.992;8.820;2022-12-18T17:07:19;35.88;;;13.98;;
48042;SDS011;33988;47.992;8.820;2022-12-18T17:09:46;36.67;;;13.40;;